createdAt,value
2017-11-16T00:00:12.350Z,1018.84
2017-11-16T00:01:12.299Z,1018.76
2017-11-16T00:02:13.390Z,1018.80
2017-11-16T00:03:12.305Z,1018.74
2017-11-16T00:04:14.425Z,1018.73
2017-11-16T00:05:12.321Z,1018.69
2017-11-16T00:06:12.492Z,1018.67
2017-11-16T00:07:12.338Z,1018.70
2017-11-16T00:08:13.427Z,1018.67
2017-11-16T00:09:12.356Z,1018.71
2017-11-16T00:10:12.521Z,1018.69
2017-11-16T00:11:12.371Z,1018.69
2017-11-16T00:12:12.536Z,1018.70
2017-11-16T00:13:12.391Z,1018.64
2017-11-16T00:14:12.558Z,1018.67
2017-11-16T00:15:12.398Z,1018.69
2017-11-16T00:16:12.563Z,1018.63
2017-11-16T00:17:12.413Z,1018.65
2017-11-16T00:18:12.576Z,1018.71
2017-11-16T00:19:12.433Z,1018.70
2017-11-16T00:20:12.563Z,1018.68
2017-11-16T00:21:12.447Z,1018.63
2017-11-16T00:22:12.569Z,1018.65
2017-11-16T00:23:12.460Z,1018.65
2017-11-16T00:24:12.582Z,1018.63
2017-11-16T00:25:12.486Z,1018.63
2017-11-16T00:26:12.594Z,1018.57
2017-11-16T00:27:12.499Z,1018.57
2017-11-16T00:28:12.608Z,1018.61
2017-11-16T00:29:12.513Z,1018.54
2017-11-16T00:30:12.623Z,1018.54
2017-11-16T00:31:12.525Z,1018.58
2017-11-16T00:32:12.636Z,1018.56
2017-11-16T00:33:12.541Z,1018.55
2017-11-16T00:34:12.651Z,1018.56
2017-11-16T00:35:12.562Z,1018.57
2017-11-16T00:36:12.664Z,1018.60
2017-11-16T00:37:12.571Z,1018.60
2017-11-16T00:38:12.679Z,1018.60
2017-11-16T00:39:12.599Z,1018.61
2017-11-16T00:40:12.702Z,1018.61
2017-11-16T00:41:12.599Z,1018.55
2017-11-16T00:42:12.714Z,1018.62
2017-11-16T00:43:12.621Z,1018.55
2017-11-16T00:44:13.742Z,1018.54
2017-11-16T00:45:12.641Z,1018.60
2017-11-16T00:46:12.732Z,1018.55
2017-11-16T00:47:12.650Z,1018.56
2017-11-16T00:48:12.754Z,1018.53
2017-11-16T00:49:12.664Z,1018.59
2017-11-16T00:50:12.735Z,1018.58
2017-11-16T00:51:12.677Z,1018.52
2017-11-16T00:52:13.771Z,1018.49
2017-11-16T00:53:12.700Z,1018.49
2017-11-16T00:54:12.768Z,1018.47
2017-11-16T00:55:12.714Z,1018.48
2017-11-16T00:56:12.772Z,1018.46
2017-11-16T00:57:12.728Z,1018.42
2017-11-16T00:58:12.786Z,1018.44
2017-11-16T00:59:12.742Z,1018.44
2017-11-16T01:00:12.798Z,1018.43
2017-11-16T01:01:12.760Z,1018.41
2017-11-16T01:02:12.814Z,1018.41
2017-11-16T01:03:12.777Z,1018.42
2017-11-16T01:04:12.828Z,1018.39
2017-11-16T01:05:12.789Z,1018.41
2017-11-16T01:06:12.840Z,1018.42
2017-11-16T01:07:12.804Z,1018.37
2017-11-16T01:08:12.853Z,1018.43
2017-11-16T01:09:12.822Z,1018.40
2017-11-16T01:10:12.867Z,1018.37
2017-11-16T01:11:12.840Z,1018.40
2017-11-16T01:12:12.883Z,1018.38
2017-11-16T01:13:12.851Z,1018.34
2017-11-16T01:14:12.892Z,1018.38
2017-11-16T01:15:12.864Z,1018.36
2017-11-16T01:16:12.910Z,1018.38
2017-11-16T01:17:12.878Z,1018.32
2017-11-16T01:18:13.027Z,1018.32
2017-11-16T01:19:12.900Z,1018.33
2017-11-16T01:20:13.040Z,1018.31
2017-11-16T01:21:12.918Z,1018.31
2017-11-16T01:22:13.055Z,1018.40
2017-11-16T01:23:12.930Z,1018.40
2017-11-16T01:24:13.067Z,1018.43
2017-11-16T01:25:12.948Z,1018.40
2017-11-16T01:26:13.082Z,1018.41
2017-11-16T01:27:12.962Z,1018.34
2017-11-16T01:28:13.095Z,1018.32
2017-11-16T01:29:12.978Z,1018.34
2017-11-16T01:30:13.102Z,1018.30
2017-11-16T01:31:13.005Z,1018.34
2017-11-16T01:32:13.117Z,1018.33
2017-11-16T01:33:13.013Z,1018.36
2017-11-16T01:34:13.132Z,1018.33
2017-11-16T01:35:13.028Z,1018.33
2017-11-16T01:36:13.155Z,1018.29
2017-11-16T01:37:13.046Z,1018.30
2017-11-16T01:38:13.172Z,1018.30
2017-11-16T01:39:13.054Z,1018.28
2017-11-16T01:40:13.181Z,1018.30
2017-11-16T01:41:13.074Z,1018.29
2017-11-16T01:42:13.195Z,1018.32
2017-11-16T01:43:13.084Z,1018.26
2017-11-16T01:44:13.207Z,1018.27
2017-11-16T01:45:13.099Z,1018.22
2017-11-16T01:46:13.221Z,1018.23
2017-11-16T01:47:13.115Z,1018.17
2017-11-16T01:48:13.234Z,1018.20
2017-11-16T01:49:13.131Z,1018.20
2017-11-16T01:50:13.247Z,1018.25
2017-11-16T01:51:13.150Z,1018.23
2017-11-16T01:52:13.261Z,1018.26
2017-11-16T01:53:13.170Z,1018.22
2017-11-16T01:54:13.319Z,1018.20
2017-11-16T01:55:13.176Z,1018.14
2017-11-16T01:56:13.334Z,1018.16
2017-11-16T01:57:13.200Z,1018.14
2017-11-16T01:58:13.345Z,1018.15
2017-11-16T01:59:13.213Z,1018.10
2017-11-16T02:00:13.464Z,1018.11
2017-11-16T02:01:13.225Z,1018.10
2017-11-16T02:02:13.373Z,1018.09
2017-11-16T02:03:13.241Z,1018.12
2017-11-16T02:04:14.412Z,1018.14
2017-11-16T02:05:13.256Z,1018.14
2017-11-16T02:06:13.400Z,1018.19
2017-11-16T02:07:13.268Z,1018.14
2017-11-16T02:08:13.405Z,1018.14
2017-11-16T02:09:13.287Z,1018.15
2017-11-16T02:10:14.452Z,1018.16
2017-11-16T02:11:13.301Z,1018.16
2017-11-16T02:12:13.440Z,1018.16
2017-11-16T02:13:13.326Z,1018.14
2017-11-16T02:14:14.484Z,1018.14
2017-11-16T02:15:13.331Z,1018.19
2017-11-16T02:16:13.484Z,1018.15
2017-11-16T02:17:13.346Z,1018.16
2017-11-16T02:18:13.498Z,1018.11
2017-11-16T02:19:13.359Z,1018.09
2017-11-16T02:20:13.508Z,1018.05
2017-11-16T02:21:13.380Z,1018.09
2017-11-16T02:22:13.521Z,1018.13
2017-11-16T02:23:13.394Z,1018.06
2017-11-16T02:24:13.535Z,1018.09
2017-11-16T02:25:13.408Z,1018.05
2017-11-16T02:26:13.546Z,1018.03
2017-11-16T02:27:13.422Z,1018.02
2017-11-16T02:28:13.567Z,1018.02
2017-11-16T02:29:13.437Z,1018.04
2017-11-16T02:30:13.575Z,1018.02
2017-11-16T02:31:13.463Z,1017.98
2017-11-16T02:32:13.588Z,1018.06
2017-11-16T02:33:13.471Z,1018.01
2017-11-16T02:34:13.602Z,1017.99
2017-11-16T02:35:13.484Z,1018.04
2017-11-16T02:36:13.551Z,1018.06
2017-11-16T02:37:13.505Z,1017.97
2017-11-16T02:38:13.652Z,1018.00
2017-11-16T02:39:13.515Z,1018.03
2017-11-16T02:40:13.669Z,1018.03
2017-11-16T02:41:13.532Z,1018.03
2017-11-16T02:42:13.679Z,1018.00
2017-11-16T02:43:13.547Z,1017.98
2017-11-16T02:44:13.694Z,1017.99
2017-11-16T02:45:13.563Z,1017.97
2017-11-16T02:46:13.708Z,1017.98
2017-11-16T02:47:13.586Z,1017.97
2017-11-16T02:48:13.723Z,1017.97
2017-11-16T02:49:13.599Z,1017.94
2017-11-16T02:50:13.737Z,1017.92
2017-11-16T02:51:13.608Z,1017.98
2017-11-16T02:52:13.749Z,1017.93
2017-11-16T02:53:13.624Z,1017.96
2017-11-16T02:54:13.789Z,1017.95
2017-11-16T02:55:13.646Z,1017.93
2017-11-16T02:56:13.789Z,1017.94
2017-11-16T02:57:13.655Z,1017.95
2017-11-16T02:58:13.746Z,1017.95
2017-11-16T02:59:13.669Z,1017.92
2017-11-16T03:00:13.774Z,1017.94
2017-11-16T03:01:13.693Z,1017.98
2017-11-16T03:02:14.821Z,1017.96
2017-11-16T03:03:13.698Z,1017.99
2017-11-16T03:04:13.804Z,1017.92
2017-11-16T03:05:13.718Z,1017.97
2017-11-16T03:06:13.815Z,1017.92
2017-11-16T03:07:13.734Z,1017.94
2017-11-16T03:08:13.830Z,1017.93
2017-11-16T03:09:13.750Z,1017.95
2017-11-16T03:10:13.843Z,1017.93
2017-11-16T03:11:13.765Z,1017.85
2017-11-16T03:12:13.856Z,1017.90
2017-11-16T03:13:13.778Z,1017.93
2017-11-16T03:14:13.870Z,1017.93
2017-11-16T03:15:13.792Z,1017.96
2017-11-16T03:16:13.883Z,1017.97
2017-11-16T03:17:13.814Z,1017.96
2017-11-16T03:18:13.897Z,1017.95
2017-11-16T03:19:13.827Z,1017.98
2017-11-16T03:20:13.912Z,1017.98
2017-11-16T03:21:13.841Z,1018.01
2017-11-16T03:22:13.931Z,1018.03
2017-11-16T03:23:13.861Z,1017.99
2017-11-16T03:24:13.941Z,1017.94
2017-11-16T03:25:13.873Z,1017.98
2017-11-16T03:26:13.952Z,1017.99
2017-11-16T03:27:13.893Z,1017.98
2017-11-16T03:28:13.968Z,1018.00
2017-11-16T03:29:13.903Z,1017.98
2017-11-16T03:30:13.985Z,1018.02
2017-11-16T03:31:13.915Z,1017.99
2017-11-16T03:32:13.995Z,1017.97
2017-11-16T03:33:13.928Z,1017.96
2017-11-16T03:34:14.009Z,1017.95
2017-11-16T03:35:13.948Z,1017.93
2017-11-16T03:36:14.026Z,1017.91
2017-11-16T03:37:13.959Z,1017.93
2017-11-16T03:38:14.034Z,1017.96
2017-11-16T03:39:13.974Z,1017.90
2017-11-16T03:40:14.056Z,1017.92
2017-11-16T03:41:13.991Z,1017.83
2017-11-16T03:42:14.070Z,1017.85
2017-11-16T03:43:14.010Z,1017.81
2017-11-16T03:44:14.077Z,1017.83
2017-11-16T03:45:14.028Z,1017.77
2017-11-16T03:46:14.091Z,1017.74
2017-11-16T03:47:14.050Z,1017.82
2017-11-16T03:48:14.111Z,1017.85
2017-11-16T03:49:14.063Z,1017.80
2017-11-16T03:50:14.124Z,1017.80
2017-11-16T03:51:14.078Z,1017.79
2017-11-16T03:52:14.141Z,1017.85
2017-11-16T03:53:14.089Z,1017.83
2017-11-16T03:54:14.157Z,1017.83
2017-11-16T03:55:14.105Z,1017.83
2017-11-16T03:56:14.165Z,1017.75
2017-11-16T03:57:14.114Z,1017.73
2017-11-16T03:58:14.191Z,1017.72
2017-11-16T03:59:14.129Z,1017.73
2017-11-16T04:00:14.188Z,1017.69
2017-11-16T04:01:14.143Z,1017.75
2017-11-16T04:02:14.305Z,1017.76
2017-11-16T04:03:14.160Z,1017.77
2017-11-16T04:04:14.318Z,1017.74
2017-11-16T04:05:14.175Z,1017.77
2017-11-16T04:06:14.330Z,1017.81
2017-11-16T04:07:14.191Z,1017.81
2017-11-16T04:08:14.349Z,1017.76
2017-11-16T04:09:14.205Z,1017.81
2017-11-16T04:10:14.362Z,1017.82
2017-11-16T04:11:14.221Z,1017.78
2017-11-16T04:12:14.374Z,1017.75
2017-11-16T04:13:14.234Z,1017.78
2017-11-16T04:14:14.386Z,1017.74
2017-11-16T04:15:14.251Z,1017.77
2017-11-16T04:16:15.422Z,1017.69
2017-11-16T04:17:14.268Z,1017.65
2017-11-16T04:18:14.464Z,1017.61
2017-11-16T04:19:14.282Z,1017.59
2017-11-16T04:20:14.458Z,1017.63
2017-11-16T04:21:14.298Z,1017.55
2017-11-16T04:22:14.426Z,1017.55
2017-11-16T04:23:14.308Z,1017.54
2017-11-16T04:24:14.442Z,1017.58
2017-11-16T04:25:14.322Z,1017.53
2017-11-16T04:26:14.465Z,1017.52
2017-11-16T04:27:14.346Z,1017.52
2017-11-16T04:28:14.467Z,1017.58
2017-11-16T04:29:14.357Z,1017.55
2017-11-16T04:30:14.481Z,1017.56
2017-11-16T04:31:14.365Z,1017.53
2017-11-16T04:32:14.494Z,1017.55
2017-11-16T04:33:14.385Z,1017.55
2017-11-16T04:34:14.577Z,1017.55
2017-11-16T04:35:14.404Z,1017.51
2017-11-16T04:36:14.589Z,1017.56
2017-11-16T04:37:14.416Z,1017.55
2017-11-16T04:38:14.605Z,1017.56
2017-11-16T04:39:14.427Z,1017.53
2017-11-16T04:40:14.619Z,1017.56
2017-11-16T04:41:14.448Z,1017.56
2017-11-16T04:42:14.633Z,1017.58
2017-11-16T04:43:14.464Z,1017.60
2017-11-16T04:44:14.648Z,1017.53
2017-11-16T04:45:14.482Z,1017.55
2017-11-16T04:46:14.559Z,1017.51
2017-11-16T04:47:14.499Z,1017.53
2017-11-16T04:48:14.578Z,1017.48
2017-11-16T04:49:14.516Z,1017.47
2017-11-16T04:50:14.585Z,1017.42
2017-11-16T04:51:14.524Z,1017.41
2017-11-16T04:52:14.601Z,1017.43
2017-11-16T04:53:14.542Z,1017.43
2017-11-16T04:54:14.616Z,1017.48
2017-11-16T04:55:14.560Z,1017.49
2017-11-16T04:56:14.631Z,1017.44
2017-11-16T04:57:14.569Z,1017.50
2017-11-16T04:58:14.649Z,1017.49
2017-11-16T04:59:14.582Z,1017.45
2017-11-16T05:00:14.659Z,1017.41
2017-11-16T05:01:14.601Z,1017.43
2017-11-16T05:02:14.669Z,1017.40
2017-11-16T05:03:14.621Z,1017.43
2017-11-16T05:04:14.683Z,1017.41
2017-11-16T05:05:14.634Z,1017.40
2017-11-16T05:06:14.693Z,1017.39
2017-11-16T05:07:14.646Z,1017.37
2017-11-16T05:08:14.707Z,1017.39
2017-11-16T05:09:14.658Z,1017.39
2017-11-16T05:10:14.713Z,1017.45
2017-11-16T05:11:14.675Z,1017.40
2017-11-16T05:12:14.725Z,1017.43
2017-11-16T05:13:14.690Z,1017.40
2017-11-16T05:14:14.738Z,1017.41
2017-11-16T05:15:14.695Z,1017.39
2017-11-16T05:16:14.752Z,1017.38
2017-11-16T05:17:14.719Z,1017.43
2017-11-16T05:18:14.767Z,1017.41
2017-11-16T05:19:14.742Z,1017.41
2017-11-16T05:20:14.773Z,1017.44
2017-11-16T05:21:14.753Z,1017.41
2017-11-16T05:22:14.795Z,1017.44
2017-11-16T05:23:14.760Z,1017.44
2017-11-16T05:24:14.807Z,1017.41
2017-11-16T05:25:14.781Z,1017.43
2017-11-16T05:26:14.819Z,1017.43
2017-11-16T05:27:14.800Z,1017.47
2017-11-16T05:28:14.833Z,1017.45
2017-11-16T05:29:14.814Z,1017.52
2017-11-16T05:30:14.845Z,1017.56
2017-11-16T05:31:14.824Z,1017.52
2017-11-16T05:32:14.966Z,1017.56
2017-11-16T05:33:14.841Z,1017.58
2017-11-16T05:34:14.978Z,1017.52
2017-11-16T05:35:14.860Z,1017.58
2017-11-16T05:36:14.875Z,1017.62
2017-11-16T05:37:14.888Z,1017.59
2017-11-16T05:38:14.873Z,1017.58
2017-11-16T05:39:14.895Z,1017.66
2017-11-16T05:40:14.894Z,1017.57
2017-11-16T05:41:14.902Z,1017.61
2017-11-16T05:42:14.902Z,1017.65
2017-11-16T05:43:14.915Z,1017.57
2017-11-16T05:44:14.925Z,1017.55
2017-11-16T05:45:14.932Z,1017.61
2017-11-16T05:46:14.937Z,1017.62
2017-11-16T05:47:14.942Z,1017.61
2017-11-16T05:48:14.951Z,1017.56
2017-11-16T05:49:15.077Z,1017.54
2017-11-16T05:50:14.963Z,1017.56
2017-11-16T05:51:15.096Z,1017.50
2017-11-16T05:52:15.035Z,1017.57
2017-11-16T05:53:15.120Z,1017.53
2017-11-16T05:54:14.998Z,1017.59
2017-11-16T05:55:15.007Z,1017.60
2017-11-16T05:56:15.014Z,1017.54
2017-11-16T05:57:15.020Z,1017.56
2017-11-16T05:58:15.029Z,1017.52
2017-11-16T05:59:15.034Z,1017.51
2017-11-16T06:00:15.045Z,1017.55
2017-11-16T06:01:15.168Z,1017.54
2017-11-16T06:02:15.058Z,1017.50
2017-11-16T06:03:15.065Z,1017.49
2017-11-16T06:04:15.079Z,1017.49
2017-11-16T06:05:15.085Z,1017.47
2017-11-16T06:06:15.086Z,1017.48
2017-11-16T06:07:15.096Z,1017.49
2017-11-16T06:08:15.113Z,1017.47
2017-11-16T06:09:15.114Z,1017.46
2017-11-16T06:10:15.120Z,1017.47
2017-11-16T06:11:15.129Z,1017.45
2017-11-16T06:12:15.133Z,1017.48
2017-11-16T06:13:15.143Z,1017.47
2017-11-16T06:14:15.148Z,1017.51
2017-11-16T06:15:15.259Z,1017.44
2017-11-16T06:16:15.162Z,1017.48
2017-11-16T06:17:15.180Z,1017.50
2017-11-16T06:18:15.179Z,1017.51
2017-11-16T06:19:15.192Z,1017.54
2017-11-16T06:20:15.198Z,1017.50
2017-11-16T06:21:15.205Z,1017.47
2017-11-16T06:22:15.211Z,1017.53
2017-11-16T06:23:15.217Z,1017.52
2017-11-16T06:24:15.246Z,1017.48
2017-11-16T06:25:15.231Z,1017.50
2017-11-16T06:26:15.245Z,1017.48
2017-11-16T06:27:15.248Z,1017.53
2017-11-16T06:28:15.253Z,1017.53
2017-11-16T06:29:15.267Z,1017.57
2017-11-16T06:30:15.272Z,1017.53
2017-11-16T06:31:15.277Z,1017.54
2017-11-16T06:32:15.292Z,1017.60
2017-11-16T06:33:15.295Z,1017.56
2017-11-16T06:34:15.303Z,1017.54
2017-11-16T06:35:15.309Z,1017.61
2017-11-16T06:36:15.308Z,1017.61
2017-11-16T06:37:15.319Z,1017.58
2017-11-16T06:38:15.332Z,1017.59
2017-11-16T06:39:15.334Z,1017.60
2017-11-16T06:40:15.339Z,1017.56
2017-11-16T06:41:15.353Z,1017.57
2017-11-16T06:42:15.353Z,1017.54
2017-11-16T06:43:15.359Z,1017.56
2017-11-16T06:44:15.425Z,1017.56
2017-11-16T06:45:15.382Z,1017.56
2017-11-16T06:46:15.392Z,1017.56
2017-11-16T06:47:15.396Z,1017.50
2017-11-16T06:48:15.402Z,1017.55
2017-11-16T06:49:15.409Z,1017.54
2017-11-16T06:50:15.418Z,1017.48
2017-11-16T06:51:15.462Z,1017.52
2017-11-16T06:52:15.435Z,1017.58
2017-11-16T06:53:15.446Z,1017.54
2017-11-16T06:54:15.492Z,1017.55
2017-11-16T06:55:15.452Z,1017.55
2017-11-16T06:56:16.524Z,1017.59
2017-11-16T06:57:15.474Z,1017.56
2017-11-16T06:58:15.478Z,1017.53
2017-11-16T06:59:15.483Z,1017.51
2017-11-16T07:00:15.494Z,1017.54
2017-11-16T07:01:15.508Z,1017.57
2017-11-16T07:02:15.509Z,1017.61
2017-11-16T07:03:15.515Z,1017.62
2017-11-16T07:04:16.634Z,1017.64
2017-11-16T07:05:15.532Z,1017.61
2017-11-16T07:06:15.535Z,1017.61
2017-11-16T07:07:15.544Z,1017.60
2017-11-16T07:08:15.554Z,1017.63
2017-11-16T07:09:16.666Z,1017.56
2017-11-16T07:10:15.577Z,1017.57
2017-11-16T07:11:16.725Z,1017.55
2017-11-16T07:12:15.582Z,1017.51
2017-11-16T07:13:15.663Z,1017.52
2017-11-16T07:14:15.599Z,1017.47
2017-11-16T07:15:15.678Z,1017.48
2017-11-16T07:16:15.621Z,1017.49
2017-11-16T07:17:15.621Z,1017.42
2017-11-16T07:18:15.627Z,1017.46
2017-11-16T07:19:15.632Z,1017.50
2017-11-16T07:20:16.738Z,1017.46
2017-11-16T07:21:15.652Z,1017.49
2017-11-16T07:22:15.733Z,1017.47
2017-11-16T07:23:15.677Z,1017.49
2017-11-16T07:24:15.708Z,1017.53
2017-11-16T07:25:15.685Z,1017.53
2017-11-16T07:26:15.733Z,1017.53
2017-11-16T07:27:15.691Z,1017.53
2017-11-16T07:28:15.707Z,1017.52
2017-11-16T07:29:15.706Z,1017.61
2017-11-16T07:30:15.721Z,1017.56
2017-11-16T07:31:15.725Z,1017.58
2017-11-16T07:32:15.733Z,1017.54
2017-11-16T07:33:15.746Z,1017.60
2017-11-16T07:34:15.753Z,1017.63
2017-11-16T07:35:15.752Z,1017.61
2017-11-16T07:36:15.762Z,1017.66
2017-11-16T07:37:15.784Z,1017.67
2017-11-16T07:38:15.775Z,1017.68
2017-11-16T07:39:15.781Z,1017.71
2017-11-16T07:40:15.788Z,1017.73
2017-11-16T07:41:15.800Z,1017.72
2017-11-16T07:42:15.873Z,1017.69
2017-11-16T07:43:15.809Z,1017.75
2017-11-16T07:44:15.816Z,1017.75
2017-11-16T07:45:15.824Z,1017.76
2017-11-16T07:46:15.829Z,1017.74
2017-11-16T07:47:15.907Z,1017.77
2017-11-16T07:48:15.858Z,1017.81
2017-11-16T07:49:15.859Z,1017.83
2017-11-16T07:50:15.864Z,1017.84
2017-11-16T07:51:15.872Z,1017.80
2017-11-16T07:52:15.882Z,1017.83
2017-11-16T07:53:15.888Z,1017.84
2017-11-16T07:54:15.929Z,1017.89
2017-11-16T07:55:15.902Z,1017.91
2017-11-16T07:56:15.910Z,1017.87
2017-11-16T07:57:15.917Z,1017.89
2017-11-16T07:58:15.921Z,1017.85
2017-11-16T07:59:15.946Z,1017.85
2017-11-16T08:00:15.937Z,1017.81
2017-11-16T08:01:15.952Z,1017.82
2017-11-16T08:02:15.948Z,1017.84
2017-11-16T08:03:18.001Z,1017.83
2017-11-16T08:04:15.965Z,1017.79
2017-11-16T08:05:15.976Z,1017.83
2017-11-16T08:06:16.021Z,1017.83
2017-11-16T08:07:15.990Z,1017.84
2017-11-16T08:08:15.997Z,1017.82
2017-11-16T08:09:16.002Z,1017.83
2017-11-16T08:10:16.013Z,1017.88
2017-11-16T08:11:16.023Z,1017.95
2017-11-16T08:12:16.033Z,1017.94
2017-11-16T08:13:16.031Z,1018.01
2017-11-16T08:14:16.043Z,1018.03
2017-11-16T08:15:16.048Z,1018.00
2017-11-16T08:16:16.058Z,1017.99
2017-11-16T08:17:16.072Z,1017.97
2017-11-16T08:18:16.166Z,1017.96
2017-11-16T08:19:16.072Z,1017.94
2017-11-16T08:20:16.184Z,1017.96
2017-11-16T08:21:16.098Z,1018.00
2017-11-16T08:22:16.198Z,1018.08
2017-11-16T08:23:16.110Z,1018.07
2017-11-16T08:24:16.210Z,1018.06
2017-11-16T08:25:16.122Z,1018.10
2017-11-16T08:26:16.216Z,1018.08
2017-11-16T08:27:16.139Z,1018.10
2017-11-16T08:28:16.229Z,1018.17
2017-11-16T08:29:16.162Z,1018.14
2017-11-16T08:30:16.242Z,1018.16
2017-11-16T08:31:16.180Z,1018.16
2017-11-16T08:32:16.296Z,1018.20
2017-11-16T08:33:16.188Z,1018.21
2017-11-16T08:34:16.224Z,1018.18
2017-11-16T08:35:16.201Z,1018.22
2017-11-16T08:36:16.221Z,1018.23
2017-11-16T08:37:16.215Z,1018.15
2017-11-16T08:38:16.221Z,1018.17
2017-11-16T08:39:16.228Z,1018.19
2017-11-16T08:40:16.238Z,1018.21
2017-11-16T08:41:16.244Z,1018.21
2017-11-16T08:42:16.252Z,1018.21
2017-11-16T08:43:16.369Z,1018.14
2017-11-16T08:44:16.264Z,1018.21
2017-11-16T08:45:16.393Z,1018.16
2017-11-16T08:46:16.281Z,1018.15
2017-11-16T08:47:16.399Z,1018.17
2017-11-16T08:48:16.323Z,1018.16
2017-11-16T08:49:16.413Z,1018.17
2017-11-16T08:50:16.347Z,1018.14
2017-11-16T08:51:16.414Z,1018.15
2017-11-16T08:52:16.333Z,1018.19
2017-11-16T08:53:16.427Z,1018.13
2017-11-16T08:54:16.352Z,1018.13
2017-11-16T08:55:16.437Z,1018.20
2017-11-16T08:56:16.362Z,1018.17
2017-11-16T08:57:16.454Z,1018.16
2017-11-16T08:58:16.379Z,1018.23
2017-11-16T08:59:16.377Z,1018.19
2017-11-16T09:00:16.475Z,1018.16
2017-11-16T09:01:16.401Z,1018.19
2017-11-16T09:02:16.490Z,1018.18
2017-11-16T09:03:16.407Z,1018.19
2017-11-16T09:04:16.420Z,1018.21
2017-11-16T09:05:16.420Z,1018.21
2017-11-16T09:06:16.515Z,1018.23
2017-11-16T09:07:16.437Z,1018.23
2017-11-16T09:08:16.535Z,1018.19
2017-11-16T09:09:16.452Z,1018.16
2017-11-16T09:10:16.547Z,1018.19
2017-11-16T09:11:16.472Z,1018.15
2017-11-16T09:12:16.472Z,1018.17
2017-11-16T09:13:16.566Z,1018.19
2017-11-16T09:14:16.494Z,1018.18
2017-11-16T09:15:16.578Z,1018.07
2017-11-16T09:16:16.499Z,1018.08
2017-11-16T09:17:16.597Z,1018.11
2017-11-16T09:18:16.511Z,1018.04
2017-11-16T09:19:16.630Z,1018.03
2017-11-16T09:20:16.530Z,1018.06
2017-11-16T09:21:16.625Z,1018.05
2017-11-16T09:22:16.545Z,1018.04
2017-11-16T09:23:16.638Z,1018.03
2017-11-16T09:24:16.565Z,1017.98
2017-11-16T09:25:16.653Z,1017.99
2017-11-16T09:26:16.574Z,1018.00
2017-11-16T09:27:16.592Z,1018.02
2017-11-16T09:28:16.589Z,1018.03
2017-11-16T09:29:16.682Z,1018.01
2017-11-16T09:30:16.603Z,1018.01
2017-11-16T09:31:16.696Z,1017.98
2017-11-16T09:32:16.618Z,1017.93
2017-11-16T09:33:16.705Z,1018.01
2017-11-16T09:34:16.632Z,1017.92
2017-11-16T09:35:16.644Z,1017.93
2017-11-16T09:36:16.679Z,1017.94
2017-11-16T09:37:16.657Z,1017.91
2017-11-16T09:38:16.686Z,1017.88
2017-11-16T09:39:16.671Z,1017.88
2017-11-16T09:40:16.678Z,1017.90
2017-11-16T09:41:16.685Z,1017.87
2017-11-16T09:42:16.692Z,1017.88
2017-11-16T09:43:16.699Z,1017.89
2017-11-16T09:44:16.706Z,1017.91
2017-11-16T09:45:16.713Z,1017.94
2017-11-16T09:46:16.741Z,1017.90
2017-11-16T09:47:16.728Z,1017.91
2017-11-16T09:48:16.732Z,1017.90
2017-11-16T09:49:16.741Z,1017.93
2017-11-16T09:50:16.754Z,1017.85
2017-11-16T09:51:16.771Z,1017.92
2017-11-16T09:52:16.762Z,1017.91
2017-11-16T09:53:16.769Z,1017.92
2017-11-16T09:54:16.780Z,1017.88
2017-11-16T09:55:16.787Z,1017.76
2017-11-16T09:56:16.860Z,1017.79
2017-11-16T09:57:16.802Z,1017.75
2017-11-16T09:58:16.880Z,1017.75
2017-11-16T09:59:16.825Z,1017.74
2017-11-16T10:00:16.896Z,1017.74
2017-11-16T10:01:16.830Z,1017.72
2017-11-16T10:02:16.839Z,1017.72
2017-11-16T10:03:16.849Z,1017.71
2017-11-16T10:04:16.915Z,1017.73
2017-11-16T10:05:16.862Z,1017.75
2017-11-16T10:06:16.926Z,1017.78
2017-11-16T10:07:16.877Z,1017.77
2017-11-16T10:08:16.889Z,1017.73
2017-11-16T10:09:16.884Z,1017.69
2017-11-16T10:10:16.900Z,1017.73
2017-11-16T10:11:16.905Z,1017.69
2017-11-16T10:12:16.975Z,1017.68
2017-11-16T10:13:16.922Z,1017.66
2017-11-16T10:14:16.990Z,1017.62
2017-11-16T10:15:16.932Z,1017.58
2017-11-16T10:16:17.003Z,1017.60
2017-11-16T10:17:16.953Z,1017.57
2017-11-16T10:18:16.958Z,1017.56
2017-11-16T10:19:16.966Z,1017.58
2017-11-16T10:20:16.974Z,1017.58
2017-11-16T10:21:17.035Z,1017.63
2017-11-16T10:22:16.982Z,1017.57
2017-11-16T10:23:17.049Z,1017.54
2017-11-16T10:24:17.003Z,1017.59
2017-11-16T10:25:17.026Z,1017.51
2017-11-16T10:26:17.013Z,1017.52
2017-11-16T10:27:17.015Z,1017.51
2017-11-16T10:28:17.028Z,1017.53
2017-11-16T10:29:17.040Z,1017.51
2017-11-16T10:30:17.043Z,1017.53
2017-11-16T10:31:17.105Z,1017.47
2017-11-16T10:32:17.059Z,1017.48
2017-11-16T10:33:17.118Z,1017.47
2017-11-16T10:34:17.077Z,1017.50
2017-11-16T10:35:17.192Z,1017.49
2017-11-16T10:36:17.092Z,1017.50
2017-11-16T10:37:17.100Z,1017.44
2017-11-16T10:38:17.106Z,1017.42
2017-11-16T10:39:17.111Z,1017.43
2017-11-16T10:40:17.147Z,1017.44
2017-11-16T10:41:17.128Z,1017.43
2017-11-16T10:42:17.133Z,1017.42
2017-11-16T10:43:17.141Z,1017.42
2017-11-16T10:44:17.150Z,1017.45
2017-11-16T10:45:17.172Z,1017.44
2017-11-16T10:46:17.168Z,1017.43
2017-11-16T10:47:17.173Z,1017.46
2017-11-16T10:48:17.180Z,1017.40
2017-11-16T10:49:17.188Z,1017.47
2017-11-16T10:50:17.199Z,1017.39
2017-11-16T10:51:17.201Z,1017.40
2017-11-16T10:52:17.208Z,1017.42
2017-11-16T10:53:17.285Z,1017.42
2017-11-16T10:54:17.223Z,1017.40
2017-11-16T10:55:17.303Z,1017.47
2017-11-16T10:56:17.235Z,1017.39
2017-11-16T10:57:17.310Z,1017.38
2017-11-16T10:58:17.249Z,1017.38
2017-11-16T10:59:17.338Z,1017.35
2017-11-16T11:00:17.267Z,1017.38
2017-11-16T11:01:18.363Z,1017.40
2017-11-16T11:02:17.277Z,1017.42
2017-11-16T11:03:17.352Z,1017.40
2017-11-16T11:04:17.292Z,1017.41
2017-11-16T11:05:17.303Z,1017.42
2017-11-16T11:06:17.706Z,1017.38
2017-11-16T11:07:17.377Z,1017.47
2017-11-16T11:08:17.331Z,1017.39
2017-11-16T11:09:17.349Z,1017.40
2017-11-16T11:10:17.344Z,1017.37
2017-11-16T11:11:17.350Z,1017.40
2017-11-16T11:12:17.356Z,1017.39
2017-11-16T11:13:17.363Z,1017.39
2017-11-16T11:14:17.371Z,1017.41
2017-11-16T11:15:17.379Z,1017.39
2017-11-16T11:16:17.385Z,1017.38
2017-11-16T11:17:17.395Z,1017.37
2017-11-16T11:18:17.401Z,1017.33
2017-11-16T11:19:17.414Z,1017.35
2017-11-16T11:20:17.419Z,1017.36
2017-11-16T11:21:17.423Z,1017.37
2017-11-16T11:22:17.429Z,1017.38
2017-11-16T11:23:17.439Z,1017.38
2017-11-16T11:24:17.444Z,1017.33
2017-11-16T11:25:17.547Z,1017.32
2017-11-16T11:26:17.458Z,1017.40
2017-11-16T11:27:17.503Z,1017.39
2017-11-16T11:28:17.503Z,1017.39
2017-11-16T11:29:17.519Z,1017.41
2017-11-16T11:30:17.490Z,1017.37
2017-11-16T11:31:17.497Z,1017.42
2017-11-16T11:32:17.504Z,1017.39
2017-11-16T11:33:17.513Z,1017.42
2017-11-16T11:34:17.541Z,1017.42
2017-11-16T11:35:17.527Z,1017.36
2017-11-16T11:36:17.557Z,1017.37
2017-11-16T11:37:17.541Z,1017.35
2017-11-16T11:38:17.575Z,1017.34
2017-11-16T11:39:17.552Z,1017.28
2017-11-16T11:40:17.587Z,1017.28
2017-11-16T11:41:17.564Z,1017.25
2017-11-16T11:42:17.588Z,1017.26
2017-11-16T11:43:17.603Z,1017.26
2017-11-16T11:44:17.600Z,1017.28
2017-11-16T11:45:17.622Z,1017.26
2017-11-16T11:46:17.613Z,1017.26
2017-11-16T11:47:17.638Z,1017.24
2017-11-16T11:48:17.626Z,1017.31
2017-11-16T11:49:17.650Z,1017.28
2017-11-16T11:50:17.641Z,1017.28
2017-11-16T11:51:17.761Z,1017.28
2017-11-16T11:52:17.652Z,1017.28
2017-11-16T11:53:17.675Z,1017.25
2017-11-16T11:54:17.672Z,1017.28
2017-11-16T11:55:17.691Z,1017.28
2017-11-16T11:56:17.685Z,1017.26
2017-11-16T11:57:17.700Z,1017.26
2017-11-16T11:58:17.693Z,1017.26
2017-11-16T11:59:17.702Z,1017.27
2017-11-16T12:00:17.708Z,1017.28
2017-11-16T12:01:17.750Z,1017.25
2017-11-16T12:02:18.055Z,1017.25
2017-11-16T12:03:17.853Z,1017.24
2017-11-16T12:04:17.744Z,1017.27
2017-11-16T12:05:17.864Z,1017.23